createdAt,value
2022-10-05T00:00:21.546Z,7.62
2022-10-05T00:01:20.812Z,8.10
2022-10-05T00:02:14.347Z,7.70
2022-10-05T00:03:09.872Z,7.99
2022-10-05T00:04:16.658Z,7.57
2022-10-05T00:05:14.530Z,6.87
2022-10-05T00:06:00.928Z,7.30
2022-10-05T00:06:51.007Z,7.23
2022-10-05T00:07:37.376Z,6.90
2022-10-05T00:08:25.371Z,7.49
2022-10-05T00:09:20.746Z,7.88
2022-10-05T00:10:13.617Z,7.52
2022-10-05T00:11:00.094Z,7.59
2022-10-05T00:11:47.172Z,7.78
2022-10-05T00:12:33.518Z,7.58
2022-10-05T00:13:24.318Z,7.42
2022-10-05T00:14:15.306Z,7.63
2022-10-05T00:15:01.690Z,7.62
2022-10-05T00:15:48.417Z,7.14
2022-10-05T00:16:34.812Z,6.91
2022-10-05T00:17:23.370Z,7.78
2022-10-05T00:18:13.267Z,7.64
2022-10-05T00:18:59.889Z,7.52
2022-10-05T00:19:46.642Z,7.93
2022-10-05T00:20:33.501Z,8.14
2022-10-05T00:21:24.526Z,7.82
2022-10-05T00:22:13.486Z,7.92
2022-10-05T00:23:04.440Z,7.82
2022-10-05T00:23:51.760Z,8.23
2022-10-05T00:24:38.284Z,8.55
2022-10-05T00:25:25.214Z,7.91
2022-10-05T00:26:16.517Z,8.13
2022-10-05T00:27:18.189Z,8.83
2022-10-05T00:28:15.408Z,9.01
2022-10-05T00:29:06.654Z,8.68
2022-10-05T00:29:58.045Z,7.90
2022-10-05T00:30:45.858Z,8.88
2022-10-05T00:31:35.508Z,8.42
2022-10-05T00:32:21.870Z,8.35
2022-10-05T00:33:08.168Z,8.45
2022-10-05T00:33:55.610Z,8.66
2022-10-05T00:34:43.232Z,8.28
2022-10-05T00:35:30.715Z,8.67
2022-10-05T00:36:17.191Z,8.59
2022-10-05T00:37:06.003Z,8.15
2022-10-05T00:37:53.962Z,8.27
2022-10-05T00:38:41.178Z,8.49
2022-10-05T00:39:28.792Z,8.73
2022-10-05T00:40:33.567Z,8.43
2022-10-05T00:41:30.129Z,8.54
2022-10-05T00:42:38.550Z,8.10
2022-10-05T00:43:40.447Z,8.16
2022-10-05T00:44:26.742Z,8.17
2022-10-05T00:45:17.216Z,8.08
2022-10-05T00:46:09.284Z,8.25
2022-10-05T00:47:02.898Z,8.33
2022-10-05T00:48:11.953Z,7.98
2022-10-05T00:49:07.111Z,8.08
2022-10-05T00:50:05.378Z,8.93
2022-10-05T00:51:03.759Z,8.51
2022-10-05T00:52:06.176Z,8.36
2022-10-05T00:52:55.322Z,8.31
2022-10-05T00:53:44.946Z,8.73
2022-10-05T00:54:45.627Z,8.00
2022-10-05T00:55:48.276Z,7.90
2022-10-05T00:56:45.502Z,8.38
2022-10-05T00:57:41.997Z,8.96
2022-10-05T00:58:37.970Z,8.52
2022-10-05T00:59:42.438Z,7.93
2022-10-05T01:00:33.120Z,8.31
2022-10-05T01:01:32.641Z,7.94
2022-10-05T01:02:36.967Z,8.44
2022-10-05T01:03:46.352Z,8.47
2022-10-05T01:04:42.076Z,8.12
2022-10-05T01:05:35.700Z,8.16
2022-10-05T01:06:42.523Z,8.00
2022-10-05T01:07:35.215Z,8.30
2022-10-05T01:08:27.502Z,7.88
2022-10-05T01:09:25.979Z,7.89
2022-10-05T01:10:20.806Z,7.99
2022-10-05T01:11:16.411Z,7.94
2022-10-05T01:12:02.811Z,8.06
2022-10-05T01:13:02.295Z,7.92
2022-10-05T01:13:48.729Z,8.28
2022-10-05T01:14:46.225Z,8.45
2022-10-05T01:15:51.424Z,8.57
2022-10-05T01:16:41.065Z,8.27
2022-10-05T01:17:27.445Z,7.42
2022-10-05T01:18:40.046Z,7.80
2022-10-05T01:19:35.322Z,7.86
2022-10-05T01:20:40.715Z,7.19
2022-10-05T01:21:30.207Z,7.42
2022-10-05T01:22:48.694Z,7.80
2022-10-05T01:23:53.950Z,7.30
2022-10-05T01:24:57.007Z,8.40
2022-10-05T01:25:56.304Z,7.79
2022-10-05T01:26:55.062Z,7.90
2022-10-05T01:27:49.159Z,7.07
2022-10-05T01:28:38.858Z,7.69
2022-10-05T01:29:31.907Z,7.31
2022-10-05T01:30:20.756Z,7.48
2022-10-05T01:31:22.757Z,7.70
2022-10-05T01:32:34.209Z,7.37
2022-10-05T01:33:20.509Z,7.12
2022-10-05T01:34:11.304Z,7.23
2022-10-05T01:35:16.380Z,7.21
2022-10-05T01:36:24.601Z,8.12
2022-10-05T01:37:19.762Z,7.75
2022-10-05T01:38:17.182Z,7.75
2022-10-05T01:39:19.575Z,7.16
2022-10-05T01:40:06.160Z,6.95
2022-10-05T01:40:52.654Z,6.74
2022-10-05T01:42:01.941Z,7.06
2022-10-05T01:43:03.623Z,7.13
2022-10-05T01:44:01.574Z,7.55
2022-10-05T01:45:06.940Z,7.45
2022-10-05T01:46:00.620Z,7.82
2022-10-05T01:46:49.686Z,7.44
2022-10-05T01:47:52.631Z,7.67
2022-10-05T01:48:48.558Z,7.72
2022-10-05T01:49:46.512Z,7.56
2022-10-05T01:50:51.940Z,7.48
2022-10-05T01:51:50.506Z,7.23
2022-10-05T01:52:49.084Z,7.64
2022-10-05T01:53:35.362Z,7.89
2022-10-05T01:54:39.811Z,8.09
2022-10-05T01:55:41.452Z,7.58
2022-10-05T01:56:27.730Z,8.07
2022-10-05T01:57:19.934Z,8.02
2022-10-05T01:58:09.032Z,7.84
2022-10-05T01:59:03.356Z,7.88
2022-10-05T02:00:04.915Z,7.95
2022-10-05T02:01:11.443Z,7.32
2022-10-05T02:02:01.656Z,7.12
2022-10-05T02:03:02.774Z,7.42
2022-10-05T02:04:21.102Z,8.02
2022-10-05T02:05:23.508Z,7.50
2022-10-05T02:06:15.051Z,7.82
2022-10-05T02:07:06.333Z,7.72
2022-10-05T02:07:58.327Z,7.79
2022-10-05T02:09:08.623Z,7.51
2022-10-05T02:10:00.574Z,7.62
2022-10-05T02:10:55.836Z,7.50
2022-10-05T02:11:49.023Z,7.43
2022-10-05T02:12:37.658Z,8.05
2022-10-05T02:13:32.237Z,7.84
2022-10-05T02:14:24.377Z,7.82
2022-10-05T02:15:13.791Z,7.88
2022-10-05T02:16:03.179Z,8.04
2022-10-05T02:16:54.396Z,7.34
2022-10-05T02:17:52.149Z,7.65
2022-10-05T02:18:42.956Z,7.78
2022-10-05T02:19:42.032Z,8.04
2022-10-05T02:20:32.931Z,7.41
2022-10-05T02:21:19.647Z,7.43
2022-10-05T02:22:20.261Z,7.55
2022-10-05T02:23:14.431Z,8.53
2022-10-05T02:24:06.200Z,7.61
2022-10-05T02:24:59.514Z,7.54
2022-10-05T02:25:50.912Z,7.90
2022-10-05T02:26:40.175Z,7.58
2022-10-05T02:27:33.028Z,7.81
2022-10-05T02:28:24.722Z,7.99
2022-10-05T02:29:15.256Z,8.14
2022-10-05T02:30:03.625Z,7.76
2022-10-05T02:30:59.267Z,8.47
2022-10-05T02:31:47.071Z,7.71
2022-10-05T02:32:41.418Z,7.93
2022-10-05T02:33:32.830Z,7.97
2022-10-05T02:34:26.735Z,8.08
2022-10-05T02:35:18.852Z,7.85
2022-10-05T02:36:16.072Z,7.69
2022-10-05T02:37:17.345Z,8.29
2022-10-05T02:38:04.861Z,7.68
2022-10-05T02:39:09.137Z,8.43
2022-10-05T02:40:15.535Z,7.69
2022-10-05T02:41:02.708Z,8.10
2022-10-05T02:41:56.461Z,8.48
2022-10-05T02:42:54.698Z,8.41
2022-10-05T02:44:07.692Z,8.42
2022-10-05T02:45:07.052Z,7.75
2022-10-05T02:46:11.962Z,8.15
2022-10-05T02:47:23.776Z,8.08
2022-10-05T02:48:21.839Z,7.90
2022-10-05T02:49:23.211Z,8.16
2022-10-05T02:50:32.229Z,7.76
2022-10-05T02:51:21.588Z,8.63
2022-10-05T02:52:21.288Z,7.97
2022-10-05T02:53:18.010Z,8.31
2022-10-05T02:54:07.204Z,8.49
2022-10-05T02:55:02.098Z,8.14
2022-10-05T02:56:07.102Z,7.92
2022-10-05T02:57:02.102Z,7.70
2022-10-05T02:58:07.090Z,7.96
2022-10-05T02:59:10.992Z,7.92
2022-10-05T03:00:06.062Z,7.99
2022-10-05T03:01:05.302Z,7.51
2022-10-05T03:01:56.654Z,7.97
2022-10-05T03:03:01.426Z,8.37
2022-10-05T03:03:58.770Z,8.09
2022-10-05T03:04:45.067Z,8.21
2022-10-05T03:05:36.494Z,7.90
2022-10-05T03:06:28.725Z,8.45
2022-10-05T03:07:20.767Z,7.95
2022-10-05T03:08:09.919Z,7.80
2022-10-05T03:09:06.633Z,8.04
2022-10-05T03:10:05.052Z,8.22
2022-10-05T03:11:05.844Z,7.99
2022-10-05T03:12:01.004Z,8.22
2022-10-05T03:12:53.205Z,8.49
2022-10-05T03:13:55.092Z,8.09
2022-10-05T03:14:54.441Z,8.31
2022-10-05T03:15:55.952Z,8.04
2022-10-05T03:16:43.573Z,9.19
2022-10-05T03:17:42.479Z,8.52
2022-10-05T03:18:55.801Z,8.58
2022-10-05T03:20:00.009Z,8.08
2022-10-05T03:20:58.404Z,8.14
2022-10-05T03:21:53.667Z,8.14
2022-10-05T03:22:44.319Z,8.41
2022-10-05T03:23:49.042Z,8.24
2022-10-05T03:24:41.380Z,8.89
2022-10-05T03:25:46.698Z,8.49
2022-10-05T03:26:56.176Z,8.07
2022-10-05T03:27:56.255Z,8.52
2022-10-05T03:28:48.770Z,8.70
2022-10-05T03:29:48.738Z,8.67
2022-10-05T03:30:43.617Z,8.51
2022-10-05T03:31:36.058Z,7.66
2022-10-05T03:32:38.426Z,8.16
2022-10-05T03:33:27.633Z,8.56
2022-10-05T03:34:26.478Z,8.38
2022-10-05T03:35:19.132Z,8.91
2022-10-05T03:36:12.380Z,7.96
2022-10-05T03:37:13.539Z,8.37
2022-10-05T03:38:15.891Z,8.72
2022-10-05T03:39:24.584Z,7.85
2022-10-05T03:40:20.665Z,8.00
2022-10-05T03:41:39.688Z,8.18
2022-10-05T03:42:44.567Z,8.12
2022-10-05T03:43:52.339Z,8.30
2022-10-05T03:45:01.929Z,8.29
2022-10-05T03:45:56.083Z,8.24
2022-10-05T03:47:01.087Z,7.99
2022-10-05T03:48:03.127Z,7.42
2022-10-05T03:49:06.055Z,7.93
2022-10-05T03:50:09.220Z,8.40
2022-10-05T03:51:08.219Z,8.18
2022-10-05T03:51:59.871Z,8.68
2022-10-05T03:53:05.674Z,8.01
2022-10-05T03:53:58.055Z,8.25
2022-10-05T03:54:48.087Z,8.36
2022-10-05T03:55:42.355Z,8.28
2022-10-05T03:56:42.430Z,8.08
2022-10-05T03:57:33.948Z,8.95
2022-10-05T03:58:21.325Z,8.50
2022-10-05T03:59:15.908Z,8.83
2022-10-05T04:00:06.214Z,9.00
2022-10-05T04:01:11.393Z,9.06
2022-10-05T04:02:01.637Z,8.83
2022-10-05T04:02:55.252Z,8.56
2022-10-05T04:03:48.239Z,8.72
2022-10-05T04:04:41.662Z,9.23
2022-10-05T04:05:33.261Z,8.80
2022-10-05T04:06:25.425Z,9.49
2022-10-05T04:07:22.577Z,9.07
2022-10-05T04:08:17.796Z,8.95
2022-10-05T04:09:15.123Z,9.27
2022-10-05T04:10:09.790Z,8.78
2022-10-05T04:10:59.895Z,9.11
2022-10-05T04:12:04.958Z,9.74
2022-10-05T04:12:56.290Z,9.70
2022-10-05T04:13:47.936Z,9.43
2022-10-05T04:14:38.493Z,9.24
2022-10-05T04:15:40.537Z,9.16
2022-10-05T04:16:31.615Z,9.09
2022-10-05T04:17:29.856Z,9.40
2022-10-05T04:18:26.253Z,8.70
2022-10-05T04:19:12.990Z,8.91
2022-10-05T04:20:06.284Z,8.88
2022-10-05T04:21:01.060Z,9.58
2022-10-05T04:21:51.715Z,9.41
2022-10-05T04:22:43.186Z,9.08
2022-10-05T04:23:44.405Z,9.02
2022-10-05T04:24:36.815Z,9.81
2022-10-05T04:25:34.946Z,9.35
2022-10-05T04:26:39.831Z,9.70
2022-10-05T04:27:39.261Z,8.76
2022-10-05T04:28:47.129Z,9.47
2022-10-05T04:29:41.699Z,8.76
2022-10-05T04:30:31.729Z,9.08
2022-10-05T04:31:30.803Z,9.28
2022-10-05T04:32:19.886Z,9.35
2022-10-05T04:33:10.175Z,9.48
2022-10-05T04:34:03.672Z,9.75
2022-10-05T04:34:50.566Z,9.08
2022-10-05T04:35:42.828Z,8.96
2022-10-05T04:36:37.249Z,9.32
2022-10-05T04:37:30.088Z,9.69
2022-10-05T04:38:34.757Z,9.23
2022-10-05T04:39:48.323Z,9.52
2022-10-05T04:40:40.678Z,9.28
2022-10-05T04:41:33.454Z,9.42
2022-10-05T04:42:26.114Z,10.14
2022-10-05T04:43:26.240Z,10.18
2022-10-05T04:44:31.501Z,9.73
2022-10-05T04:45:35.527Z,9.55
2022-10-05T04:46:51.449Z,9.03
2022-10-05T04:47:58.255Z,9.17
2022-10-05T04:48:55.036Z,9.18
2022-10-05T04:49:44.332Z,9.38
2022-10-05T04:50:50.987Z,9.44
2022-10-05T04:52:04.311Z,9.41
2022-10-05T04:52:50.731Z,9.07
2022-10-05T04:54:00.428Z,9.17
2022-10-05T04:55:02.975Z,9.43
2022-10-05T04:55:49.526Z,10.38
2022-10-05T04:56:42.872Z,9.62
2022-10-05T04:57:44.040Z,9.30
2022-10-05T04:58:49.131Z,10.01
2022-10-05T04:59:54.614Z,8.96
2022-10-05T05:00:59.920Z,9.14
2022-10-05T05:02:06.895Z,9.00
2022-10-05T05:02:57.686Z,9.31
2022-10-05T05:04:01.956Z,9.32
2022-10-05T05:05:07.773Z,9.17
2022-10-05T05:06:16.977Z,9.12
2022-10-05T05:07:15.366Z,9.35
2022-10-05T05:08:11.756Z,9.06
2022-10-05T05:09:07.593Z,9.26
2022-10-05T05:09:59.821Z,9.70
2022-10-05T05:11:07.214Z,9.84
2022-10-05T05:11:53.988Z,9.08
2022-10-05T05:12:54.113Z,9.23
2022-10-05T05:13:40.945Z,8.94
2022-10-05T05:14:33.435Z,9.78
2022-10-05T05:15:38.085Z,8.92
2022-10-05T05:16:46.166Z,8.84
2022-10-05T05:17:52.464Z,8.54
2022-10-05T05:18:58.273Z,8.88
2022-10-05T05:20:04.084Z,8.87
2022-10-05T05:21:17.888Z,8.29
2022-10-05T05:22:18.739Z,8.74
2022-10-05T05:23:20.009Z,8.97
2022-10-05T05:24:18.107Z,8.58
2022-10-05T05:25:11.082Z,8.89
2022-10-05T05:26:20.619Z,8.95
2022-10-05T05:27:25.660Z,8.69
2022-10-05T05:28:31.117Z,8.97
2022-10-05T05:29:44.188Z,8.64
2022-10-05T05:30:40.777Z,8.83
2022-10-05T05:31:50.241Z,8.67
2022-10-05T05:32:46.532Z,8.92
2022-10-05T05:33:56.080Z,8.83
2022-10-05T05:34:56.923Z,8.30
2022-10-05T05:36:01.831Z,8.57
2022-10-05T05:36:59.274Z,9.19
2022-10-05T05:38:05.980Z,9.25
2022-10-05T05:38:52.809Z,8.77
2022-10-05T05:39:39.192Z,9.14
2022-10-05T05:40:31.368Z,8.87
2022-10-05T05:41:18.135Z,8.97
2022-10-05T05:42:18.400Z,8.62
2022-10-05T05:43:22.192Z,9.02
2022-10-05T05:44:22.983Z,9.05
2022-10-05T05:45:42.110Z,9.31
2022-10-05T05:47:02.407Z,9.15
2022-10-05T05:47:51.844Z,8.86
2022-10-05T05:48:43.933Z,8.63
2022-10-05T05:49:38.206Z,8.48
2022-10-05T05:50:34.218Z,9.18
2022-10-05T05:51:28.137Z,8.90
2022-10-05T05:52:21.054Z,9.17
2022-10-05T05:53:16.757Z,9.23
2022-10-05T05:54:22.305Z,8.43
2022-10-05T05:55:29.748Z,8.65
2022-10-05T05:56:20.393Z,8.74
2022-10-05T05:57:13.186Z,8.81
2022-10-05T05:58:05.526Z,8.58
2022-10-05T05:58:56.427Z,8.65
2022-10-05T05:59:57.795Z,8.37
2022-10-05T06:00:49.296Z,8.79
2022-10-05T06:01:45.817Z,8.78
2022-10-05T06:02:42.876Z,9.49
2022-10-05T06:03:52.017Z,8.49
2022-10-05T06:04:45.707Z,8.83
2022-10-05T06:05:39.789Z,8.57
2022-10-05T06:06:31.360Z,8.68
2022-10-05T06:07:30.198Z,9.01
2022-10-05T06:08:30.523Z,8.97
2022-10-05T06:09:36.363Z,8.37
2022-10-05T06:10:52.758Z,9.05
2022-10-05T06:11:45.311Z,9.04
2022-10-05T06:12:35.932Z,8.82
2022-10-05T06:13:33.307Z,8.71
2022-10-05T06:14:33.024Z,9.26
2022-10-05T06:15:37.848Z,9.27
2022-10-05T06:16:27.627Z,8.90
2022-10-05T06:17:20.205Z,9.18
2022-10-05T06:18:12.222Z,8.61
2022-10-05T06:19:02.906Z,8.97
2022-10-05T06:19:54.000Z,9.29
2022-10-05T06:20:46.916Z,9.36
2022-10-05T06:21:47.169Z,8.94
2022-10-05T06:22:40.047Z,8.93
2022-10-05T06:23:43.486Z,8.53
2022-10-05T06:24:35.817Z,8.76
2022-10-05T06:25:43.262Z,9.06
2022-10-05T06:26:29.682Z,9.26
2022-10-05T06:27:16.682Z,9.02
2022-10-05T06:28:11.093Z,8.74
2022-10-05T06:29:04.109Z,9.94
2022-10-05T06:29:50.596Z,9.47
2022-10-05T06:30:55.394Z,9.05
2022-10-05T06:31:45.064Z,9.10
2022-10-05T06:32:37.816Z,9.06
2022-10-05T06:33:39.494Z,9.52
2022-10-05T06:34:25.858Z,9.36
2022-10-05T06:35:14.761Z,9.21
2022-10-05T06:36:07.113Z,9.11
2022-10-05T06:37:03.133Z,9.29
2022-10-05T06:38:17.107Z,9.35
2022-10-05T06:39:15.792Z,9.10
2022-10-05T06:40:18.584Z,8.88
2022-10-05T06:41:16.437Z,8.97
2022-10-05T06:42:17.644Z,8.20
2022-10-05T06:43:34.677Z,8.95
2022-10-05T06:44:53.942Z,9.01
2022-10-05T06:46:22.758Z,8.77
2022-10-05T06:47:34.029Z,8.69
2022-10-05T06:48:34.590Z,8.47
2022-10-05T06:49:44.472Z,8.68
2022-10-05T06:50:50.015Z,8.39
2022-10-05T06:51:46.630Z,8.27
2022-10-05T06:52:43.507Z,8.76
2022-10-05T06:53:45.712Z,9.47
2022-10-05T06:54:51.409Z,8.98
2022-10-05T06:55:50.001Z,8.22
2022-10-05T06:56:45.568Z,9.34
2022-10-05T06:57:51.009Z,8.92
2022-10-05T06:59:04.634Z,9.16
2022-10-05T07:00:01.818Z,8.20
2022-10-05T07:00:54.625Z,8.60
2022-10-05T07:01:55.088Z,8.82
2022-10-05T07:02:54.252Z,8.52
2022-10-05T07:03:50.225Z,9.05
2022-10-05T07:04:37.170Z,8.65
2022-10-05T07:05:43.255Z,8.71
2022-10-05T07:06:30.360Z,8.48
2022-10-05T07:07:22.615Z,8.54
2022-10-05T07:08:12.899Z,8.37
2022-10-05T07:09:11.950Z,8.30
2022-10-05T07:10:11.185Z,8.68
2022-10-05T07:11:07.798Z,8.61
2022-10-05T07:12:03.748Z,8.55
2022-10-05T07:12:53.741Z,8.66
2022-10-05T07:13:59.634Z,8.49
2022-10-05T07:14:46.199Z,8.31
2022-10-05T07:15:39.374Z,7.92
2022-10-05T07:16:45.448Z,8.26
2022-10-05T07:17:32.548Z,8.30
2022-10-05T07:18:35.563Z,8.21
2022-10-05T07:19:44.169Z,7.80
2022-10-05T07:20:49.237Z,7.56
2022-10-05T07:21:48.191Z,8.46
2022-10-05T07:22:40.892Z,8.41
2022-10-05T07:23:35.003Z,7.96
2022-10-05T07:24:22.519Z,8.39
2022-10-05T07:25:44.306Z,7.92
2022-10-05T07:26:35.426Z,7.51
2022-10-05T07:27:24.755Z,7.62
2022-10-05T07:28:19.794Z,7.89
2022-10-05T07:29:24.575Z,7.67
2022-10-05T07:30:13.606Z,8.49
2022-10-05T07:31:13.856Z,7.86
2022-10-05T07:32:00.229Z,7.95
2022-10-05T07:33:00.043Z,8.34
2022-10-05T07:33:54.291Z,7.59
2022-10-05T07:34:46.415Z,7.49
2022-10-05T07:35:51.648Z,7.46
2022-10-05T07:37:26.296Z,8.33
2022-10-05T07:38:20.993Z,7.43
2022-10-05T07:39:18.068Z,7.57
2022-10-05T07:40:14.942Z,7.44
2022-10-05T07:41:06.191Z,7.41
2022-10-05T07:42:09.933Z,6.50
2022-10-05T07:43:19.001Z,6.68
2022-10-05T07:44:14.641Z,7.12
2022-10-05T07:45:17.191Z,7.04
2022-10-05T07:46:14.207Z,6.48
2022-10-05T07:47:10.189Z,7.01
2022-10-05T07:47:59.088Z,7.59
2022-10-05T07:49:05.463Z,6.88
2022-10-05T07:49:58.628Z,7.20
2022-10-05T07:50:58.643Z,7.02
2022-10-05T07:51:48.081Z,7.12
2022-10-05T07:52:39.805Z,6.79
2022-10-05T07:53:32.275Z,6.28
2022-10-05T07:54:37.939Z,6.52
2022-10-05T07:55:26.606Z,6.67
2022-10-05T07:56:23.209Z,6.95
2022-10-05T07:57:24.778Z,6.59
2022-10-05T07:58:11.159Z,6.90
2022-10-05T07:59:07.665Z,6.69
2022-10-05T08:00:01.745Z,6.54
2022-10-05T08:01:00.494Z,6.56
2022-10-05T08:01:53.026Z,6.48
2022-10-05T08:02:44.614Z,6.84
2022-10-05T08:03:45.563Z,6.41
2022-10-05T08:04:41.891Z,6.40
2022-10-05T08:05:32.659Z,6.53
2022-10-05T08:06:34.857Z,7.10
2022-10-05T08:07:21.302Z,6.35
2022-10-05T08:08:10.989Z,6.58
2022-10-05T08:09:05.923Z,7.07
2022-10-05T08:09:52.198Z,6.10
2022-10-05T08:10:43.295Z,6.15
2022-10-05T08:11:48.498Z,5.91
2022-10-05T08:12:44.528Z,5.97
2022-10-05T08:13:55.175Z,5.87
2022-10-05T08:15:03.397Z,5.79
2022-10-05T08:15:54.958Z,6.03
2022-10-05T08:16:43.169Z,5.67
2022-10-05T08:17:37.320Z,5.94
2022-10-05T08:18:40.367Z,6.21
2022-10-05T08:19:36.482Z,5.92
2022-10-05T08:20:32.100Z,5.46
2022-10-05T08:21:23.589Z,6.22
2022-10-05T08:22:14.066Z,5.69
2022-10-05T08:23:20.777Z,6.00
2022-10-05T08:24:16.284Z,5.79
2022-10-05T08:25:05.742Z,6.13
2022-10-05T08:25:57.900Z,5.94
2022-10-05T08:26:52.799Z,6.06
2022-10-05T08:27:52.423Z,6.07
2022-10-05T08:28:47.196Z,5.47
2022-10-05T08:29:51.577Z,5.61
2022-10-05T08:30:52.192Z,5.98
2022-10-05T08:31:41.952Z,6.01
2022-10-05T08:32:39.126Z,5.84
2022-10-05T08:33:31.470Z,5.53
2022-10-05T08:34:23.815Z,5.92
2022-10-05T08:35:23.025Z,5.72
2022-10-05T08:36:13.559Z,5.34
2022-10-05T08:37:18.404Z,5.19
2022-10-05T08:38:11.543Z,5.78
2022-10-05T08:39:03.849Z,5.66
2022-10-05T08:40:10.073Z,6.28
2022-10-05T08:41:05.486Z,5.78
2022-10-05T08:42:05.028Z,6.00
2022-10-05T08:43:07.126Z,5.41
2022-10-05T08:44:08.164Z,5.63
2022-10-05T08:45:05.875Z,5.52
2022-10-05T08:46:22.905Z,5.54
2022-10-05T08:47:21.846Z,5.87
2022-10-05T08:48:08.168Z,5.74
2022-10-05T08:49:04.533Z,5.48
2022-10-05T08:49:53.910Z,5.26
2022-10-05T08:50:46.164Z,5.96
2022-10-05T08:51:42.470Z,5.66
2022-10-05T08:52:47.421Z,5.52
2022-10-05T08:53:54.039Z,5.38
2022-10-05T08:54:53.743Z,5.61
2022-10-05T08:55:48.991Z,5.00
2022-10-05T08:56:35.466Z,5.24
2022-10-05T08:57:48.277Z,5.29
2022-10-05T08:58:53.253Z,5.32
2022-10-05T08:59:57.748Z,5.26
2022-10-05T09:00:50.151Z,5.49
2022-10-05T09:02:03.933Z,5.37
2022-10-05T09:03:09.723Z,5.60
2022-10-05T09:04:14.387Z,5.13
2022-10-05T09:05:19.177Z,5.45
2022-10-05T09:06:22.619Z,5.30
2022-10-05T09:07:17.382Z,5.49
2022-10-05T09:08:15.554Z,5.17
2022-10-05T09:09:07.761Z,5.41
2022-10-05T09:10:12.898Z,4.72
2022-10-05T09:10:59.707Z,5.00
2022-10-05T09:12:01.334Z,5.18
2022-10-05T09:13:06.370Z,5.68
2022-10-05T09:14:08.145Z,5.07
2022-10-05T09:15:20.945Z,5.02
2022-10-05T09:16:10.020Z,5.07
2022-10-05T09:16:59.152Z,5.24
2022-10-05T09:18:11.415Z,5.46
2022-10-05T09:18:57.703Z,5.06
2022-10-05T09:19:47.060Z,4.79
2022-10-05T09:20:53.824Z,4.84
2022-10-05T09:21:55.434Z,5.22
2022-10-05T09:22:54.963Z,5.52
2022-10-05T09:23:42.884Z,5.06
2022-10-05T09:24:37.894Z,5.21
2022-10-05T09:25:27.236Z,4.99
2022-10-05T09:26:42.698Z,4.95
2022-10-05T09:27:34.902Z,4.77
2022-10-05T09:28:29.736Z,4.97
2022-10-05T09:29:25.310Z,4.65
2022-10-05T09:30:23.596Z,4.80
2022-10-05T09:31:26.488Z,5.09
2022-10-05T09:32:27.694Z,4.73
2022-10-05T09:33:36.054Z,4.83
2022-10-05T09:34:39.581Z,4.97
2022-10-05T09:35:57.915Z,4.82
2022-10-05T09:36:47.370Z,5.15
2022-10-05T09:37:39.885Z,4.81
2022-10-05T09:38:58.006Z,4.57
2022-10-05T09:40:02.898Z,4.77
2022-10-05T09:40:58.380Z,4.71
2022-10-05T09:42:06.844Z,4.65
2022-10-05T09:43:10.641Z,4.54
2022-10-05T09:44:08.480Z,4.67
2022-10-05T09:45:01.542Z,4.80
2022-10-05T09:46:02.497Z,4.31
2022-10-05T09:47:03.335Z,4.89
2022-10-05T09:48:01.645Z,4.46
2022-10-05T09:48:54.604Z,4.45
2022-10-05T09:49:59.841Z,4.29
2022-10-05T09:50:52.378Z,4.14
2022-10-05T09:51:58.614Z,4.38
2022-10-05T09:52:55.595Z,4.57
2022-10-05T09:53:41.877Z,4.34
2022-10-05T09:54:29.140Z,4.27
2022-10-05T09:55:28.658Z,4.38
2022-10-05T09:56:21.129Z,4.67
2022-10-05T09:57:27.823Z,4.54
2022-10-05T09:58:17.233Z,4.56
2022-10-05T09:59:06.380Z,4.49
2022-10-05T09:59:52.782Z,4.64
2022-10-05T10:00:51.476Z,4.69
2022-10-05T10:02:09.836Z,4.45
2022-10-05T10:03:08.490Z,4.58
2022-10-05T10:04:00.971Z,4.54
2022-10-05T10:05:01.589Z,4.61
2022-10-05T10:05:54.024Z,4.28
2022-10-05T10:07:04.881Z,4.63
2022-10-05T10:08:20.139Z,4.75
2022-10-05T10:09:06.446Z,4.47
2022-10-05T10:10:08.872Z,4.53
2022-10-05T10:11:04.077Z,4.55
2022-10-05T10:12:03.974Z,5.06
2022-10-05T10:13:09.218Z,4.96
2022-10-05T10:14:08.346Z,4.63
2022-10-05T10:15:06.717Z,4.16
2022-10-05T10:16:08.386Z,4.84
2022-10-05T10:17:12.944Z,4.81
2022-10-05T10:18:17.630Z,4.42
2022-10-05T10:19:04.010Z,4.05
2022-10-05T10:20:09.624Z,4.68
2022-10-05T10:21:07.595Z,4.90
2022-10-05T10:21:53.956Z,4.82
2022-10-05T10:22:59.235Z,4.68
2022-10-05T10:23:48.589Z,4.59
2022-10-05T10:25:01.019Z,4.87
2022-10-05T10:25:56.103Z,4.84
2022-10-05T10:26:51.366Z,4.25
2022-10-05T10:27:56.574Z,4.25
2022-10-05T10:29:10.860Z,4.62
2022-10-05T10:29:57.149Z,4.21
2022-10-05T10:31:13.723Z,4.15
2022-10-05T10:32:10.109Z,4.74
2022-10-05T10:33:02.466Z,4.24
2022-10-05T10:33:54.659Z,4.32
2022-10-05T10:34:59.585Z,4.34
2022-10-05T10:35:54.345Z,4.05
2022-10-05T10:36:43.943Z,3.50
2022-10-05T10:37:39.272Z,3.90
2022-10-05T10:38:38.026Z,4.01
2022-10-05T10:39:41.079Z,4.04
2022-10-05T10:40:27.559Z,4.36
2022-10-05T10:41:37.259Z,4.87
2022-10-05T10:42:26.208Z,4.62
2022-10-05T10:43:24.713Z,4.37
2022-10-05T10:44:20.225Z,4.16
2022-10-05T10:45:19.480Z,3.93
2022-10-05T10:46:24.441Z,3.86
2022-10-05T10:47:36.912Z,3.56
2022-10-05T10:48:26.596Z,4.27
2022-10-05T10:49:22.075Z,3.69
2022-10-05T10:50:11.413Z,3.34
2022-10-05T10:51:13.231Z,3.36
2022-10-05T10:51:59.550Z,3.81
2022-10-05T10:53:04.831Z,4.05
2022-10-05T10:54:12.134Z,3.97
2022-10-05T10:55:10.708Z,4.07
2022-10-05T10:56:15.697Z,3.75
2022-10-05T10:57:03.113Z,3.62
2022-10-05T10:57:52.627Z,3.72
2022-10-05T10:58:49.016Z,3.73
2022-10-05T10:59:40.026Z,3.93
2022-10-05T11:00:45.224Z,3.99
2022-10-05T11:01:41.284Z,4.08
2022-10-05T11:02:30.585Z,3.72
2022-10-05T11:03:32.176Z,3.94
2022-10-05T11:04:53.592Z,4.16
2022-10-05T11:05:58.406Z,4.53
2022-10-05T11:06:47.846Z,4.11
2022-10-05T11:07:58.059Z,3.89
2022-10-05T11:08:57.931Z,3.78
2022-10-05T11:09:49.939Z,3.85
2022-10-05T11:10:51.307Z,4.01
2022-10-05T11:11:43.328Z,3.87
2022-10-05T11:12:34.672Z,3.86
2022-10-05T11:13:40.570Z,3.82
2022-10-05T11:14:36.733Z,4.22
2022-10-05T11:15:41.800Z,3.85
2022-10-05T11:16:28.219Z,4.06
2022-10-05T11:17:23.444Z,4.15
2022-10-05T11:18:15.803Z,3.88
2022-10-05T11:19:40.496Z,4.06
2022-10-05T11:20:59.134Z,4.27
2022-10-05T11:21:48.470Z,3.93
2022-10-05T11:22:54.721Z,3.84
2022-10-05T11:23:50.233Z,4.04
2022-10-05T11:24:54.687Z,4.21
2022-10-05T11:26:01.602Z,4.35
2022-10-05T11:27:07.762Z,4.42
2022-10-05T11:28:09.853Z,4.11
2022-10-05T11:29:23.770Z,3.84
2022-10-05T11:30:28.586Z,3.34
2022-10-05T11:31:31.014Z,4.00
2022-10-05T11:32:23.567Z,4.04
2022-10-05T11:33:26.203Z,4.09
2022-10-05T11:34:28.322Z,3.93
2022-10-05T11:35:33.826Z,3.75
2022-10-05T11:36:25.869Z,3.98
2022-10-05T11:37:25.733Z,3.68
2022-10-05T11:38:31.045Z,3.51
2022-10-05T11:39:38.002Z,3.64
2022-10-05T11:40:49.495Z,3.71
2022-10-05T11:41:39.345Z,3.14
2022-10-05T11:42:43.135Z,2.97
2022-10-05T11:43:40.082Z,3.00
2022-10-05T11:44:48.756Z,3.08
2022-10-05T11:45:58.570Z,2.71
2022-10-05T11:46:46.014Z,2.48
2022-10-05T11:47:40.289Z,2.68
2022-10-05T11:48:47.155Z,2.61
2022-10-05T11:49:39.468Z,2.50
2022-10-05T11:50:35.344Z,2.63
2022-10-05T11:51:25.229Z,2.65
2022-10-05T11:52:17.863Z,2.32
2022-10-05T11:53:23.257Z,2.19
2022-10-05T11:54:09.573Z,2.47
2022-10-05T11:55:10.842Z,2.59
2022-10-05T11:56:16.221Z,2.50
2022-10-05T11:57:16.777Z,2.53
2022-10-05T11:58:17.218Z,3.10
2022-10-05T11:59:21.241Z,2.80
2022-10-05T12:00:19.402Z,2.68
2022-10-05T12:01:15.986Z,2.39
2022-10-05T12:02:12.118Z,2.27
2022-10-05T12:03:16.795Z,2.30
2022-10-05T12:04:27.519Z,2.44
2022-10-05T12:05:14.364Z,2.27
2022-10-05T12:06:22.111Z,2.43
2022-10-05T12:07:27.042Z,2.52
2022-10-05T12:08:33.645Z,2.50
2022-10-05T12:09:25.663Z,2.28
2022-10-05T12:10:17.870Z,2.32
2022-10-05T12:11:22.913Z,2.34
2022-10-05T12:12:09.262Z,2.27
2022-10-05T12:12:58.857Z,2.18
2022-10-05T12:13:45.304Z,2.07
2022-10-05T12:14:49.732Z,2.15
2022-10-05T12:15:42.924Z,2.37
2022-10-05T12:16:47.631Z,2.24
2022-10-05T12:17:41.838Z,2.30
2022-10-05T12:18:31.257Z,2.21
2022-10-05T12:19:26.000Z,2.36
2022-10-05T12:20:23.563Z,2.13
2022-10-05T12:21:30.168Z,2.23
2022-10-05T12:22:36.740Z,2.19
2022-10-05T12:23:43.350Z,2.07
2022-10-05T12:24:35.880Z,2.34
2022-10-05T12:25:22.416Z,2.54
2022-10-05T12:26:20.759Z,2.57
2022-10-05T12:27:07.123Z,2.18
2022-10-05T12:27:56.978Z,2.38
2022-10-05T12:28:53.987Z,2.48
2022-10-05T12:29:50.076Z,2.30
2022-10-05T12:31:02.969Z,2.29
2022-10-05T12:31:59.773Z,2.23
2022-10-05T12:33:04.702Z,2.19
2022-10-05T12:33:54.058Z,2.34
2022-10-05T12:34:40.489Z,2.26
2022-10-05T12:35:47.366Z,2.32
2022-10-05T12:37:03.522Z,2.13
2022-10-05T12:37:55.490Z,2.23
2022-10-05T12:38:47.142Z,2.33
2022-10-05T12:39:39.578Z,2.23
2022-10-05T12:40:38.686Z,2.23
2022-10-05T12:41:27.785Z,2.21
2022-10-05T12:42:19.884Z,2.25
2022-10-05T12:43:22.219Z,2.06
2022-10-05T12:44:23.298Z,2.11
2022-10-05T12:45:27.630Z,2.34
2022-10-05T12:46:25.001Z,2.26
2022-10-05T12:47:26.545Z,2.26